KPHN/PHN METAR and TAF weather

Enter ICAO airport designator
Station Type Date Time Source
KPHN METAR 2019/06/19 00:35 UTC NOAA

KPHN 190035Z AUTO 00000KT 10SM CLR 21/13 A2988 RMK AO2


Station Type Date Time Source
KPHN Decoded METAR 2019/06/19 00:35 UTC NOAA

St. Clair County International, MI, United States (KPHN) 42-55N 082-32W
Jun 18, 2019 - 08:35 PM EDT / 2019.06.19 0035 UTC
Wind: Calm:0
Visibility: 10 mile(s):0
Sky conditions: clear
Temperature: 69 F (21 C)
Dew Point: 55 F (13 C)
Relative Humidity: 60%
Pressure (altimeter): 29.88 in. Hg (1011 hPa)
ob: KPHN 190035Z AUTO 00000KT 10SM CLR 21/13 A2988 RMK AO2
cycle: 0

Station Type Date Time Source
KPHN TAF UTC NOAA

Error!

Example: see airport list